Time;durP1;ratioP1;P1;durP2;ratioP2;P2;SDS_P1;SDS_P2;PMS_P1;PMS_P2;Temp;Humidity;BMP_temperature;BMP_pressure;BME280_temperature;BME280_humidity;BME280_pressure;Samples;Min_cycle;Max_cycle;Signal;HPM_P1;HPM_P2
2021/11/28 00:01:56;;;;;;;0.70;0.70;;;5.90;99.90;;;;;;5012807;28;20032;-76
2021/11/28 00:04:22;;;;;;;0.55;0.55;;;5.90;99.90;;;;;;5013799;28;20026;-77
2021/11/28 00:07:26;;;;;;;0.93;0.52;;;5.90;99.90;;;;;;5013351;28;20490;-76
2021/11/28 00:14:50;;;;;;;0.43;0.40;;;5.90;99.90;;;;;;5013364;28;20030;-77
2021/11/28 00:17:16;;;;;;;0.80;0.50;;;5.90;99.90;;;;;;5014661;28;20014;-76
2021/11/28 00:19:42;;;;;;;0.88;0.60;;;5.90;99.90;;;;;;5011937;28;20029;-75
2021/11/28 00:22:08;;;;;;;0.45;0.45;;;5.90;99.90;;;;;;5013470;28;20050;-75
2021/11/28 00:24:34;;;;;;;1.75;0.70;;;5.90;99.90;;;;;;5013559;28;20029;-75
2021/11/28 00:27:00;;;;;;;0.65;0.50;;;5.90;99.90;;;;;;5013049;28;20374;-76
2021/11/28 00:29:27;;;;;;;0.52;0.40;;;5.90;99.90;;;;;;5013383;28;20014;-75
2021/11/28 00:31:55;;;;;;;0.30;0.30;;;5.90;99.90;;;;;;5012886;28;20026;-75
2021/11/28 00:34:22;;;;;;;0.40;0.40;;;5.90;99.90;;;;;;5012174;28;20033;-75
2021/11/28 00:36:48;;;;;;;1.27;0.50;;;5.90;99.90;;;;;;5012803;28;20092;-76
2021/11/28 00:39:14;;;;;;;0.55;0.50;;;5.90;99.90;;;;;;5013258;28;20100;-76
2021/11/28 00:41:39;;;;;;;0.52;0.50;;;5.80;99.90;;;;;;5012407;28;20037;-76
2021/11/28 00:44:05;;;;;;;0.43;0.43;;;5.90;99.90;;;;;;5012983;28;20034;-76
2021/11/28 00:46:32;;;;;;;0.80;0.50;;;5.80;99.90;;;;;;5012825;28;20029;-76
2021/11/28 00:48:59;;;;;;;0.82;0.40;;;5.80;99.90;;;;;;5011268;28;20026;-76
2021/11/28 00:51:49;;;;;;;1.02;0.60;;;5.80;99.90;;;;;;5011897;28;20425;-76
2021/11/28 00:54:16;;;;;;;0.65;0.40;;;5.80;99.90;;;;;;5012874;28;20443;-76
2021/11/28 00:56:42;;;;;;;0.50;0.50;;;5.80;99.90;;;;;;5011115;28;20030;-76
2021/11/28 00:59:07;;;;;;;0.40;0.40;;;5.80;99.90;;;;;;5012926;28;20378;-76
2021/11/28 01:01:34;;;;;;;0.40;0.40;;;5.80;99.90;;;;;;5011567;28;20026;-76
2021/11/28 01:04:03;;;;;;;0.52;0.40;;;5.80;99.90;;;;;;5011136;28;20014;-76
2021/11/28 01:06:29;;;;;;;0.68;0.50;;;5.80;99.90;;;;;;5012874;28;20026;-75
2021/11/28 01:08:55;;;;;;;0.50;0.50;;;5.70;99.90;;;;;;5012434;28;20101;-75
2021/11/28 01:11:23;;;;;;;0.80;0.50;;;5.70;99.90;;;;;;5012729;28;20065;-76
2021/11/28 01:13:52;;;;;;;0.93;0.50;;;5.80;99.90;;;;;;5012287;28;20022;-76
2021/11/28 01:16:19;;;;;;;0.30;0.30;;;5.80;99.90;;;;;;5012645;28;20034;-76
2021/11/28 01:18:46;;;;;;;0.40;0.40;;;5.80;99.90;;;;;;5012071;28;20064;-75
2021/11/28 01:21:12;;;;;;;0.40;0.40;;;5.80;99.90;;;;;;5012700;28;20153;-75
2021/11/28 01:23:38;;;;;;;0.43;0.40;;;5.80;99.90;;;;;;5012690;28;20066;-76
2021/11/28 01:26:04;;;;;;;0.70;0.65;;;5.80;99.90;;;;;;5012202;28;20026;-75
2021/11/28 01:28:31;;;;;;;0.43;0.43;;;5.70;99.90;;;;;;5011326;28;20033;-75
2021/11/28 01:30:56;;;;;;;0.88;0.55;;;5.70;99.90;;;;;;5012543;28;20063;-75
2021/11/28 01:33:22;;;;;;;0.40;0.40;;;5.70;99.90;;;;;;5012925;28;20108;-75
2021/11/28 01:35:48;;;;;;;0.45;0.45;;;5.70;99.90;;;;;;5010699;28;20026;-76
2021/11/28 01:38:18;;;;;;;1.17;0.50;;;5.80;99.90;;;;;;5011496;28;20102;-76
2021/11/28 01:40:45;;;;;;;1.02;0.50;;;5.70;99.90;;;;;;5012176;28;20022;-75
2021/11/28 01:43:13;;;;;;;1.35;0.40;;;5.70;99.90;;;;;;5011165;28;20382;-76
2021/11/28 01:45:39;;;;;;;0.50;0.45;;;5.70;99.90;;;;;;5011059;28;20037;-75
2021/11/28 01:48:11;;;;;;;0.52;0.50;;;5.70;99.90;;;;;;5010627;28;20379;-75
2021/11/28 01:50:39;;;;;;;0.30;0.30;;;5.70;99.90;;;;;;5012650;28;20050;-75
2021/11/28 01:53:10;;;;;;;1.02;0.60;;;5.70;99.90;;;;;;5011925;28;20018;-76
2021/11/28 01:55:36;;;;;;;;;;;5.80;99.90;;;;;;5012644;28;20034;-76
2021/11/28 01:58:05;;;;;;;0.40;0.40;;;5.70;99.90;;;;;;5011547;28;19909;-75
2021/11/28 02:00:35;;;;;;;0.50;0.50;;;5.70;99.90;;;;;;5012298;28;20026;-76
2021/11/28 02:03:00;;;;;;;0.45;0.45;;;5.70;99.90;;;;;;5013092;28;20029;-75
2021/11/28 02:05:29;;;;;;;0.30;0.30;;;5.70;99.90;;;;;;5016054;28;20034;-76
2021/11/28 02:07:56;;;;;;;1.23;0.60;;;5.70;99.90;;;;;;5015731;28;20022;-76
2021/11/28 02:10:23;;;;;;;0.98;0.50;;;5.70;99.90;;;;;;5015998;28;20053;-76
2021/11/28 02:12:50;;;;;;;0.77;0.60;;;5.70;99.90;;;;;;5015517;28;20048;-76
2021/11/28 02:15:17;;;;;;;0.45;0.45;;;5.80;99.90;;;;;;5015921;28;20409;-75
2021/11/28 02:17:44;;;;;;;0.40;0.40;;;5.70;99.90;;;;;;5015868;28;20018;-76
2021/11/28 02:20:11;;;;;;;0.57;0.50;;;5.70;99.90;;;;;;5014530;28;20033;-76
2021/11/28 02:22:40;;;;;;;0.40;0.40;;;5.70;99.90;;;;;;5015399;28;20474;-76
2021/11/28 02:25:08;;;;;;;0.40;0.40;;;5.70;99.90;;;;;;5014019;28;20029;-75
2021/11/28 02:27:34;;;;;;;0.40;0.40;;;5.70;99.90;;;;;;5015959;28;20458;-76
2021/11/28 02:29:59;;;;;;;0.50;0.50;;;5.70;99.90;;;;;;5015207;28;20072;-75
2021/11/28 02:32:25;;;;;;;0.43;0.43;;;5.70;99.90;;;;;;5015244;28;20061;-76
2021/11/28 02:34:51;;;;;;;0.40;0.40;;;5.70;99.90;;;;;;5013766;28;20028;-76
2021/11/28 02:37:17;;;;;;;0.80;0.50;;;5.70;99.90;;;;;;5016470;28;20367;-76
2021/11/28 02:39:42;;;;;;;1.02;0.50;;;5.70;99.90;;;;;;5015716;28;20025;-75
2021/11/28 02:42:08;;;;;;;0.40;0.40;;;5.70;99.90;;;;;;5015028;28;20088;-75
2021/11/28 02:44:34;;;;;;;0.52;0.47;;;5.70;99.90;;;;;;5015102;28;20026;-76
2021/11/28 02:47:01;;;;;;;0.50;0.50;;;5.70;99.90;;;;;;5014871;28;20021;-75
2021/11/28 02:49:27;;;;;;;0.50;0.50;;;5.70;99.90;;;;;;5013878;28;20116;-76
2021/11/28 02:51:53;;;;;;;1.35;0.50;;;5.70;99.90;;;;;;5013543;28;20025;-75
2021/11/28 02:54:19;;;;;;;0.65;0.57;;;5.70;99.90;;;;;;5015134;28;20475;-76
2021/11/28 02:56:47;;;;;;;0.90;0.55;;;5.70;99.90;;;;;;5015141;28;20069;-76
2021/11/28 02:59:13;;;;;;;0.55;0.50;;;5.70;99.90;;;;;;5015168;28;20037;-76
2021/11/28 03:01:39;;;;;;;0.45;0.45;;;5.70;99.90;;;;;;5014842;28;20501;-76
2021/11/28 03:04:05;;;;;;;0.65;0.50;;;5.70;99.90;;;;;;5014212;28;20026;-75
2021/11/28 03:06:31;;;;;;;0.57;0.57;;;5.70;99.90;;;;;;5014732;28;20065;-75
2021/11/28 03:08:57;;;;;;;0.90;0.60;;;5.70;99.90;;;;;;5014542;28;20479;-75
2021/11/28 03:11:22;;;;;;;0.70;0.50;;;5.80;99.90;;;;;;5014786;28;20026;-75
2021/11/28 03:13:51;;;;;;;1.13;0.70;;;5.70;99.90;;;;;;5012723;28;20024;-75
2021/11/28 03:16:20;;;;;;;0.40;0.40;;;5.70;99.90;;;;;;5014101;28;20553;-74
2021/11/28 03:18:47;;;;;;;0.47;0.35;;;5.70;99.90;;;;;;5014690;28;20093;-75
2021/11/28 03:21:18;;;;;;;1.77;0.60;;;5.70;99.90;;;;;;5013035;28;20077;-75
2021/11/28 03:23:45;;;;;;;;;;;5.70;99.90;;;;;;5015054;28;20186;-76
2021/11/28 03:26:12;;;;;;;1.00;0.50;;;5.70;99.90;;;;;;5014185;28;19933;-76
2021/11/28 03:28:48;;;;;;;1.30;0.60;;;5.70;99.90;;;;;;5014717;28;20038;-76
2021/11/28 03:31:14;;;;;;;0.50;0.50;;;5.70;99.90;;;;;;5013283;28;20029;-76
2021/11/28 03:33:40;;;;;;;1.70;0.50;;;5.70;99.90;;;;;;5014421;28;20033;-76
2021/11/28 03:36:08;;;;;;;0.57;0.50;;;5.70;99.90;;;;;;5013998;28;20057;-76
2021/11/28 03:38:35;;;;;;;0.57;0.55;;;5.70;99.90;;;;;;5013055;28;20018;-76
2021/11/28 03:41:01;;;;;;;1.13;0.50;;;5.70;99.90;;;;;;5013881;28;20104;-76
2021/11/28 03:43:27;;;;;;;1.02;0.40;;;5.70;99.90;;;;;;5013965;28;20060;-76
2021/11/28 03:45:53;;;;;;;0.77;0.50;;;5.70;99.90;;;;;;5012573;28;20386;-74
2021/11/28 03:48:18;;;;;;;0.82;0.50;;;5.60;99.90;;;;;;5012883;28;20389;-75
2021/11/28 03:50:44;;;;;;;1.65;0.63;;;5.70;99.90;;;;;;5013813;28;20026;-75
2021/11/28 03:53:10;;;;;;;0.50;0.43;;;5.60;99.90;;;;;;5013596;28;20029;-75
2021/11/28 03:55:36;;;;;;;1.08;0.50;;;5.70;99.90;;;;;;5012655;28;20076;-75
2021/11/28 03:58:04;;;;;;;0.82;0.80;;;5.60;99.90;;;;;;5012178;28;20026;-76
2021/11/28 04:00:30;;;;;;;0.50;0.50;;;5.70;99.90;;;;;;5013985;28;20022;-75
2021/11/28 04:02:55;;;;;;;0.60;0.40;;;5.70;99.90;;;;;;5013435;28;20032;-75
2021/11/28 04:05:21;;;;;;;1.85;0.60;;;5.70;99.90;;;;;;5012512;28;20033;-76
2021/11/28 04:07:47;;;;;;;1.98;0.68;;;5.60;99.90;;;;;;5013825;28;20026;-75
2021/11/28 04:10:13;;;;;;;0.80;0.50;;;5.60;99.90;;;;;;5012041;28;20025;-75
2021/11/28 04:12:39;;;;;;;0.60;0.40;;;5.60;99.90;;;;;;5012612;28;20022;-75
2021/11/28 04:15:06;;;;;;;1.27;0.60;;;5.60;99.90;;;;;;5013381;28;20532;-75
2021/11/28 04:17:32;;;;;;;1.38;0.70;;;5.60;99.90;;;;;;5013597;28;20030;-75
2021/11/28 04:19:58;;;;;;;0.68;0.60;;;5.60;99.90;;;;;;5012864;28;20045;-75
2021/11/28 04:22:25;;;;;;;1.05;0.50;;;5.60;99.90;;;;;;5011751;28;20042;-78
2021/11/28 04:24:52;;;;;;;1.20;0.50;;;5.60;99.90;;;;;;5013519;28;20045;-75
2021/11/28 04:27:17;;;;;;;0.63;0.52;;;5.60;99.90;;;;;;5013347;28;20079;-75
2021/11/28 04:29:43;;;;;;;0.57;0.50;;;5.60;99.90;;;;;;5013737;28;20022;-75
2021/11/28 04:32:09;;;;;;;1.75;0.63;;;5.60;99.90;;;;;;5011429;28;20025;-75
2021/11/28 04:34:35;;;;;;;1.55;0.70;;;5.60;99.90;;;;;;5013666;28;20416;-76
2021/11/28 04:37:00;;;;;;;1.77;0.70;;;5.60;99.90;;;;;;5012535;28;20037;-75
2021/11/28 04:39:26;;;;;;;0.73;0.52;;;5.60;99.90;;;;;;5013085;28;20030;-75
2021/11/28 04:41:52;;;;;;;0.60;0.45;;;5.60;99.90;;;;;;5012187;28;20109;-76
2021/11/28 04:44:18;;;;;;;1.02;0.60;;;5.50;99.90;;;;;;5011638;28;20025;-76
2021/11/28 04:46:44;;;;;;;1.35;0.60;;;5.50;99.90;;;;;;5013296;28;20108;-76
2021/11/28 04:49:09;;;;;;;1.13;0.60;;;5.50;99.90;;;;;;5011374;28;20025;-76
2021/11/28 04:51:35;;;;;;;1.05;0.45;;;5.50;99.90;;;;;;5013029;28;20018;-75
2021/11/28 04:54:01;;;;;;;3.20;0.70;;;5.50;99.90;;;;;;5012577;28;20049;-75
2021/11/28 04:56:28;;;;;;;2.13;0.68;;;5.50;99.90;;;;;;5012945;28;20117;-75
2021/11/28 04:58:55;;;;;;;1.40;0.60;;;5.50;99.90;;;;;;5013829;28;20446;-74
2021/11/28 05:01:22;;;;;;;0.60;0.55;;;5.50;99.90;;;;;;5012749;28;20026;-75
2021/11/28 05:03:48;;;;;;;0.65;0.50;;;5.60;99.90;;;;;;5011560;28;20041;-74
2021/11/28 05:06:14;;;;;;;0.82;0.60;;;5.50;99.90;;;;;;5012446;28;20084;-76
2021/11/28 05:08:40;;;;;;;2.10;0.88;;;5.60;99.90;;;;;;5012796;28;20410;-75
2021/11/28 05:11:06;;;;;;;1.30;0.60;;;5.60;99.90;;;;;;5010647;28;20503;-75
2021/11/28 05:13:31;;;;;;;0.45;0.45;;;5.60;99.90;;;;;;5011262;28;20022;-75
2021/11/28 05:15:57;;;;;;;1.02;0.47;;;5.50;99.90;;;;;;5010876;28;20103;-75
2021/11/28 05:18:23;;;;;;;2.05;0.57;;;5.60;99.90;;;;;;5012663;28;20467;-75
2021/11/28 05:20:49;;;;;;;0.70;0.50;;;5.50;99.90;;;;;;5012742;28;20410;-75
2021/11/28 05:23:16;;;;;;;1.92;0.60;;;5.50;99.90;;;;;;5012259;28;20387;-75
2021/11/28 05:25:42;;;;;;;1.15;0.60;;;5.50;99.90;;;;;;5011249;28;20367;-75
2021/11/28 05:28:09;;;;;;;1.15;0.50;;;5.50;99.90;;;;;;5012329;28;20022;-76
2021/11/28 05:30:35;;;;;;;0.73;0.50;;;5.50;99.90;;;;;;5012691;28;20400;-75
2021/11/28 05:33:01;;;;;;;1.45;0.55;;;5.50;99.90;;;;;;5010847;28;20025;-75
2021/11/28 05:35:27;;;;;;;1.52;0.50;;;5.40;99.90;;;;;;5011240;28;20117;-75
2021/11/28 05:37:53;;;;;;;0.75;0.50;;;5.30;99.90;;;;;;5012240;28;20104;-75
2021/11/28 05:40:19;;;;;;;1.48;0.50;;;5.30;99.90;;;;;;5015890;28;20026;-75
2021/11/28 05:42:48;;;;;;;0.68;0.40;;;5.20;99.90;;;;;;5016578;28;20451;-75
2021/11/28 05:45:15;;;;;;;0.75;0.50;;;5.10;99.90;;;;;;5016021;28;20026;-74
2021/11/28 05:47:40;;;;;;;0.70;0.57;;;5.00;99.90;;;;;;5016565;28;20022;-75
2021/11/28 05:50:07;;;;;;;0.65;0.40;;;5.00;99.90;;;;;;5016016;28;20454;-75
2021/11/28 05:52:33;;;;;;;0.68;0.50;;;4.90;99.90;;;;;;5016369;28;20018;-75
2021/11/28 05:54:59;;;;;;;1.17;0.70;;;4.80;99.90;;;;;;5015822;28;20044;-75
2021/11/28 05:57:24;;;;;;;1.48;0.52;;;4.80;99.90;;;;;;5015775;28;20475;-75
2021/11/28 05:59:50;;;;;;;1.35;0.55;;;4.70;99.90;;;;;;5016080;28;20084;-75
2021/11/28 06:02:16;;;;;;;0.88;0.55;;;4.70;99.90;;;;;;5016029;28;20037;-76
2021/11/28 06:04:41;;;;;;;0.57;0.50;;;4.60;99.90;;;;;;5016133;28;20037;-75
2021/11/28 06:07:07;;;;;;;0.80;0.40;;;4.60;99.90;;;;;;5014254;28;20037;-75
2021/11/28 06:09:33;;;;;;;0.57;0.57;;;4.60;99.90;;;;;;5016076;28;20323;-75
2021/11/28 06:11:58;;;;;;;1.85;0.85;;;4.50;99.90;;;;;;5015923;28;20022;-75
2021/11/28 06:14:24;;;;;;;0.77;0.60;;;4.50;99.90;;;;;;5012036;28;20099;-75
2021/11/28 06:16:49;;;;;;;1.50;0.63;;;4.40;99.90;;;;;;5015630;28;20026;-75
2021/11/28 06:19:15;;;;;;;0.75;0.60;;;4.40;99.90;;;;;;5003622;28;20037;-73
2021/11/28 06:21:41;;;;;;;0.63;0.50;;;4.40;99.90;;;;;;4995681;28;20502;-77
2021/11/28 06:24:07;;;;;;;1.00;0.65;;;4.30;99.90;;;;;;5012002;28;20075;-74
2021/11/28 06:26:32;;;;;;;1.85;0.68;;;4.30;99.90;;;;;;5015362;28;20037;-75
2021/11/28 06:28:58;;;;;;;0.95;0.63;;;4.30;99.90;;;;;;5015724;28;20030;-75
2021/11/28 06:31:24;;;;;;;1.00;0.40;;;4.30;99.90;;;;;;5014849;28;20482;-76
2021/11/28 06:33:49;;;;;;;0.43;0.40;;;4.20;99.90;;;;;;5015080;28;20505;-75
2021/11/28 06:36:15;;;;;;;1.05;0.60;;;4.20;99.90;;;;;;5014417;28;20414;-75
2021/11/28 06:38:41;;;;;;;1.40;0.63;;;4.20;99.90;;;;;;5013819;28;20024;-75
2021/11/28 06:41:07;;;;;;;0.77;0.45;;;4.20;99.90;;;;;;5014724;28;20028;-75
2021/11/28 06:43:33;;;;;;;1.70;0.40;;;4.20;99.90;;;;;;5015031;28;20460;-75
2021/11/28 06:45:59;;;;;;;0.73;0.60;;;4.10;99.90;;;;;;5013783;28;20036;-75
2021/11/28 06:48:24;;;;;;;0.50;0.50;;;4.10;99.90;;;;;;5014359;28;20026;-75
2021/11/28 06:50:51;;;;;;;0.50;0.50;;;4.20;99.90;;;;;;5012255;28;20018;-76
2021/11/28 06:53:17;;;;;;;0.70;0.60;;;4.10;99.90;;;;;;5012877;28;20022;-75
2021/11/28 06:55:43;;;;;;;0.52;0.52;;;4.20;99.90;;;;;;5013353;28;20026;-75
2021/11/28 06:58:08;;;;;;;0.65;0.45;;;4.20;99.90;;;;;;5013329;28;20370;-76
2021/11/28 07:00:34;;;;;;;1.02;0.65;;;4.20;99.90;;;;;;5014063;28;20024;-75
2021/11/28 07:03:00;;;;;;;0.50;0.50;;;4.20;99.90;;;;;;5015038;28;20048;-75
2021/11/28 07:05:25;;;;;;;1.35;0.63;;;4.30;99.90;;;;;;5014493;28;20025;-76
2021/11/28 07:07:51;;;;;;;1.85;0.68;;;4.30;99.90;;;;;;5014652;28;20034;-75
2021/11/28 07:10:17;;;;;;;0.43;0.43;;;4.40;99.90;;;;;;5014761;28;20032;-75
2021/11/28 07:12:44;;;;;;;1.52;0.70;;;4.40;99.90;;;;;;5014740;28;20112;-75
2021/11/28 07:15:10;;;;;;;2.30;0.70;;;4.50;99.90;;;;;;5014320;28;20381;-75
2021/11/28 07:17:36;;;;;;;0.60;0.55;;;4.50;99.90;;;;;;5013488;28;20095;-75
2021/11/28 07:20:04;;;;;;;0.63;0.60;;;4.40;99.90;;;;;;5013992;28;20424;-75
2021/11/28 07:22:30;;;;;;;0.55;0.50;;;4.40;99.90;;;;;;5013069;28;20104;-75
2021/11/28 07:24:56;;;;;;;0.90;0.60;;;4.40;99.90;;;;;;5013010;28;20096;-75
2021/11/28 07:27:22;;;;;;;1.10;0.60;;;4.50;99.90;;;;;;5014141;28;20461;-75
2021/11/28 07:29:47;;;;;;;1.58;0.60;;;4.50;99.90;;;;;;5014320;28;20025;-75
2021/11/28 07:32:13;;;;;;;1.15;0.50;;;4.60;99.90;;;;;;5014311;28;20022;-76
2021/11/28 07:34:39;;;;;;;0.65;0.57;;;4.50;99.90;;;;;;5014797;28;20022;-75
2021/11/28 07:37:05;;;;;;;1.42;0.65;;;4.50;99.90;;;;;;5012757;28;20045;-75
2021/11/28 07:39:30;;;;;;;0.68;0.60;;;4.60;99.90;;;;;;5014458;28;20018;-75
2021/11/28 07:41:56;;;;;;;0.50;0.50;;;4.50;99.90;;;;;;5014277;28;20026;-75
2021/11/28 07:44:22;;;;;;;0.45;0.45;;;4.50;99.90;;;;;;5013788;28;20022;-75
2021/11/28 07:46:48;;;;;;;0.60;0.60;;;4.40;99.90;;;;;;5014127;28;20463;-75
2021/11/28 07:49:13;;;;;;;1.55;0.75;;;4.50;99.90;;;;;;5016508;28;20013;-75
2021/11/28 07:51:39;;;;;;;1.77;0.70;;;4.50;99.90;;;;;;5033772;28;20021;-75
2021/11/28 07:54:06;;;;;;;1.40;0.70;;;4.50;99.90;;;;;;5032509;28;20079;-75
2021/11/28 07:56:32;;;;;;;1.10;0.70;;;4.50;99.90;;;;;;5032189;28;20037;-75
2021/11/28 07:58:58;;;;;;;1.80;0.60;;;4.50;99.90;;;;;;5033433;28;20470;-75
2021/11/28 08:01:24;;;;;;;1.77;0.70;;;4.60;99.90;;;;;;5032838;28;20075;-75
2021/11/28 08:03:50;;;;;;;2.30;0.85;;;4.60;99.90;;;;;;5033654;28;20029;-75
2021/11/28 08:06:16;;;;;;;2.60;0.60;;;4.60;99.90;;;;;;5033179;28;20319;-76
2021/11/28 08:08:42;;;;;;;2.72;0.80;;;4.60;99.90;;;;;;5033266;28;20037;-75
2021/11/28 08:11:08;;;;;;;0.70;0.50;;;4.60;99.90;;;;;;5032789;28;20017;-75
2021/11/28 08:13:34;;;;;;;0.60;0.45;;;4.60;99.90;;;;;;5033481;28;20037;-75
2021/11/28 08:16:00;;;;;;;0.82;0.63;;;4.70;99.90;;;;;;5032903;28;20029;-75
2021/11/28 08:18:25;;;;;;;0.60;0.60;;;4.70;99.90;;;;;;5032565;28;20148;-75
2021/11/28 08:20:52;;;;;;;0.60;0.60;;;4.70;99.90;;;;;;5032141;28;20021;-74
2021/11/28 08:23:17;;;;;;;1.63;0.80;;;4.70;99.90;;;;;;5032641;28;20508;-75
2021/11/28 08:25:43;;;;;;;1.27;0.82;;;4.70;99.90;;;;;;5033224;28;20061;-75
2021/11/28 08:28:09;;;;;;;0.55;0.50;;;4.70;99.90;;;;;;5032687;28;20398;-75
2021/11/28 08:30:36;;;;;;;1.00;0.70;;;4.70;99.90;;;;;;5033189;28;20093;-75
2021/11/28 08:33:03;;;;;;;1.33;0.63;;;4.70;99.90;;;;;;5032714;28;20029;-75
2021/11/28 08:35:29;;;;;;;0.57;0.50;;;4.60;99.90;;;;;;5032344;28;20650;-78
2021/11/28 08:37:57;;;;;;;1.13;0.65;;;4.60;99.90;;;;;;5031220;28;20022;-75
2021/11/28 08:40:22;;;;;;;1.58;0.60;;;4.60;99.90;;;;;;5030973;28;20422;-75
2021/11/28 08:42:48;;;;;;;1.17;0.60;;;4.60;99.90;;;;;;5032545;28;20026;-73
2021/11/28 08:45:16;;;;;;;0.77;0.47;;;4.60;99.90;;;;;;5031100;28;20446;-74
2021/11/28 08:47:42;;;;;;;1.98;0.60;;;4.60;99.90;;;;;;5033035;28;20032;-74
2021/11/28 08:50:10;;;;;;;1.70;0.80;;;4.60;99.90;;;;;;5032836;28;20319;-74
2021/11/28 08:52:36;;;;;;;2.63;0.80;;;4.60;99.90;;;;;;5032771;28;20022;-74
2021/11/28 08:55:04;;;;;;;1.60;0.77;;;4.60;99.90;;;;;;5032347;28;20029;-74
2021/11/28 08:57:29;;;;;;;1.75;0.88;;;4.70;99.90;;;;;;5031030;28;20022;-74
2021/11/28 08:59:55;;;;;;;0.95;0.70;;;4.60;99.90;;;;;;5032813;28;20148;-74
2021/11/28 09:02:21;;;;;;;0.95;0.60;;;4.50;99.90;;;;;;5032161;28;20029;-74
2021/11/28 09:04:47;;;;;;;0.70;0.70;;;4.50;99.90;;;;;;5032857;28;20516;-74
2021/11/28 09:07:12;;;;;;;0.75;0.40;;;4.40;99.90;;;;;;5032054;28;20033;-74
2021/11/28 09:09:39;;;;;;;0.50;0.50;;;4.50;99.90;;;;;;5031212;28;20026;-74
2021/11/28 09:12:05;;;;;;;1.20;0.60;;;4.50;99.90;;;;;;5031876;28;20028;-74
2021/11/28 09:14:32;;;;;;;0.47;0.47;;;4.50;99.90;;;;;;5032121;28;20067;-74
2021/11/28 09:16:57;;;;;;;1.55;0.60;;;4.40;99.90;;;;;;5032328;28;20061;-74
2021/11/28 09:19:34;;;;;;;1.92;0.50;;;4.40;99.90;;;;;;5031961;28;20060;-74
2021/11/28 09:22:02;;;;;;;1.23;0.63;;;4.50;99.90;;;;;;5032194;28;20355;-74
2021/11/28 09:24:36;;;;;;;0.93;0.50;;;4.60;99.90;;;;;;5030665;28;20392;-74
2021/11/28 09:27:13;;;;;;;2.53;0.80;;;4.70;99.90;;;;;;5032513;28;20037;-74
2021/11/28 09:29:41;;;;;;;2.10;0.70;;;4.70;99.90;;;;;;5031143;28;20049;-74
2021/11/28 09:32:08;;;;;;;2.42;0.88;;;4.70;99.90;;;;;;5030916;28;20026;-74
2021/11/28 09:34:34;;;;;;;0.75;0.70;;;4.70;99.90;;;;;;5030690;28;20040;-74
2021/11/28 09:37:00;;;;;;;1.35;0.50;;;4.70;99.90;;;;;;5032094;28;20385;-74
2021/11/28 09:39:27;;;;;;;0.90;0.70;;;4.70;99.90;;;;;;5032067;28;20036;-74
2021/11/28 09:42:05;;;;;;;1.52;0.60;;;4.60;99.90;;;;;;5032388;28;20038;-74
2021/11/28 09:44:33;;;;;;;2.05;0.68;;;4.70;99.90;;;;;;5031720;28;20013;-74
2021/11/28 09:46:59;;;;;;;1.65;0.70;;;4.80;99.90;;;;;;5031812;28;20105;-74
2021/11/28 09:49:28;;;;;;;1.63;0.70;;;4.90;99.90;;;;;;5030596;28;20056;-74
2021/11/28 09:51:56;;;;;;;1.25;0.60;;;5.10;99.90;;;;;;5032082;28;20471;-74
2021/11/28 09:54:23;;;;;;;1.38;0.50;;;5.20;99.90;;;;;;5031396;28;20108;-74
2021/11/28 09:56:50;;;;;;;0.65;0.50;;;5.30;99.90;;;;;;5032031;28;20025;-74
2021/11/28 09:59:16;;;;;;;1.15;0.50;;;5.40;99.90;;;;;;5030308;28;20022;-74
2021/11/28 10:01:43;;;;;;;1.73;0.70;;;5.40;99.90;;;;;;5031978;28;20111;-74
2021/11/28 10:04:09;;;;;;;0.93;0.57;;;5.40;99.90;;;;;;5031876;28;20026;-74
2021/11/28 10:06:35;;;;;;;2.60;0.73;;;5.40;99.90;;;;;;5030189;28;20381;-74
2021/11/28 10:09:06;;;;;;;3.28;0.70;;;5.40;99.90;;;;;;5031641;28;20351;-74
2021/11/28 10:11:50;;;;;;;1.17;0.70;;;5.40;99.90;;;;;;5030235;28;20496;-74
2021/11/28 10:14:16;;;;;;;1.23;0.50;;;5.50;99.90;;;;;;5031512;28;20067;-75
2021/11/28 10:16:43;;;;;;;2.05;0.63;;;5.60;99.90;;;;;;5030474;28;20069;-75
2021/11/28 10:19:09;;;;;;;1.20;0.50;;;5.70;99.90;;;;;;5031559;28;20111;-74
2021/11/28 10:21:36;;;;;;;1.40;0.70;;;5.80;99.90;;;;;;5031419;28;20049;-75
2021/11/28 10:24:17;;;;;;;1.50;0.60;;;5.80;99.90;;;;;;5032614;28;20053;-74
2021/11/28 10:27:06;;;;;;;1.83;0.77;;;5.80;99.90;;;;;;5035376;28;20504;-73
2021/11/28 10:29:37;;;;;;;1.02;0.63;;;5.80;99.90;;;;;;5034980;28;20025;-73
2021/11/28 10:32:06;;;;;;;0.82;0.55;;;5.90;99.90;;;;;;5035343;28;20458;-73
2021/11/28 10:34:41;;;;;;;1.10;0.60;;;5.90;99.90;;;;;;5034853;28;20466;-73
2021/11/28 10:37:15;;;;;;;0.50;0.45;;;6.00;99.90;;;;;;5034074;28;20420;-73
2021/11/28 10:39:49;;;;;;;0.57;0.40;;;6.10;99.90;;;;;;5034892;28;20064;-74
2021/11/28 10:42:22;;;;;;;0.65;0.38;;;6.10;99.90;;;;;;5033919;28;20026;-73
2021/11/28 10:45:14;;;;;;;1.52;0.52;;;6.10;99.90;;;;;;5035367;28;20023;-73
2021/11/28 10:47:42;;;;;;;1.52;0.50;;;6.10;99.90;;;;;;5033270;28;20052;-73
2021/11/28 10:50:18;;;;;;;0.77;0.60;;;6.10;99.90;;;;;;5034990;28;20022;-74
2021/11/28 10:52:47;;;;;;;0.40;0.40;;;6.10;99.90;;;;;;5034966;28;20033;-74
2021/11/28 10:55:15;;;;;;;0.70;0.47;;;6.10;99.90;;;;;;5034949;28;20018;-74
2021/11/28 10:57:42;;;;;;;1.65;0.60;;;6.20;99.90;;;;;;5034399;28;20026;-74
2021/11/28 11:00:10;;;;;;;1.30;0.70;;;6.20;99.90;;;;;;5034719;28;20072;-73
2021/11/28 11:02:39;;;;;;;1.42;0.40;;;6.20;99.90;;;;;;5034321;28;20029;-73
2021/11/28 11:05:10;;;;;;;0.75;0.50;;;6.20;99.90;;;;;;5034797;28;20068;-73
2021/11/28 11:07:43;;;;;;;1.00;0.50;;;6.20;99.90;;;;;;5034394;28;20047;-74
2021/11/28 11:10:29;;;;;;;1.83;0.63;;;6.20;99.90;;;;;;5034645;28;20025;-74
2021/11/28 11:12:57;;;;;;;0.73;0.60;;;6.30;99.90;;;;;;5034671;28;20151;-74
2021/11/28 11:15:55;;;;;;;1.73;0.70;;;6.30;99.90;;;;;;5034011;28;20030;-74
2021/11/28 11:18:23;;;;;;;2.20;0.63;;;6.30;99.90;;;;;;5011429;28;20128;-74
2021/11/28 11:20:51;;;;;;;1.08;0.73;;;6.30;99.90;;;;;;5034457;28;20018;-73
2021/11/28 11:23:40;;;;;;;2.25;0.70;;;6.30;99.90;;;;;;5034316;28;20042;-73
2021/11/28 11:26:12;;;;;;;1.52;0.50;;;6.30;99.90;;;;;;5034158;28;20451;-76
2021/11/28 11:29:06;;;;;;;0.77;0.43;;;6.40;99.90;;;;;;5034055;28;20046;-75
2021/11/28 11:31:33;;;;;;;1.08;0.50;;;6.40;99.90;;;;;;5033912;28;20025;-73
2021/11/28 11:33:59;;;;;;;1.25;0.70;;;6.40;99.90;;;;;;5033956;28;20076;-74
2021/11/28 11:36:52;;;;;;;1.20;0.65;;;6.40;99.90;;;;;;5032761;28;20491;-73
2021/11/28 11:39:18;;;;;;;0.57;0.50;;;6.40;99.90;;;;;;5034083;28;20014;-74
2021/11/28 11:41:43;;;;;;;2.85;0.80;;;6.50;99.90;;;;;;5032327;28;20155;-73
2021/11/28 11:44:09;;;;;;;0.40;0.38;;;6.50;99.90;;;;;;5034148;28;20064;-74
2021/11/28 11:46:36;;;;;;;2.75;0.70;;;6.60;99.90;;;;;;5033317;28;20027;-73
2021/11/28 11:49:03;;;;;;;1.02;0.50;;;6.60;99.90;;;;;;5033852;28;20112;-73
2021/11/28 11:51:30;;;;;;;0.63;0.50;;;6.70;99.90;;;;;;5031890;28;20116;-74
2021/11/28 11:53:57;;;;;;;1.02;0.60;;;6.80;99.90;;;;;;5032478;28;20084;-73
2021/11/28 11:56:23;;;;;;;0.73;0.70;;;6.80;99.90;;;;;;5033734;28;20041;-74
2021/11/28 11:59:05;;;;;;;0.63;0.50;;;6.80;99.90;;;;;;5033811;28;20021;-74
2021/11/28 12:01:31;;;;;;;0.65;0.50;;;6.70;99.90;;;;;;5033271;28;20021;-74
2021/11/28 12:03:57;;;;;;;0.70;0.50;;;6.70;99.90;;;;;;5033524;28;20033;-74
2021/11/28 12:06:41;;;;;;;1.23;0.60;;;6.70;99.90;;;;;;5033569;28;20021;-74
2021/11/28 12:09:25;;;;;;;0.50;0.50;;;6.60;99.90;;;;;;5033485;28;20056;-74
2021/11/28 12:12:02;;;;;;;0.40;0.40;;;6.50;99.90;;;;;;5033489;28;20018;-74
2021/11/28 12:14:28;;;;;;;1.30;0.40;;;6.40;99.90;;;;;;5032814;28;20024;-74
2021/11/28 12:16:54;;;;;;;0.47;0.40;;;6.40;99.90;;;;;;5033315;28;20037;-74
2021/11/28 12:19:43;;;;;;;0.73;0.40;;;6.40;99.90;;;;;;5032995;28;20025;-73
2021/11/28 12:22:36;;;;;;;0.52;0.50;;;6.40;99.90;;;;;;5033244;28;20017;-73
2021/11/28 12:25:39;;;;;;;0.40;0.40;;;6.40;99.90;;;;;;5033211;28;20154;-73
2021/11/28 12:28:20;;;;;;;0.40;0.40;;;6.50;99.90;;;;;;5033089;28;20022;-73
2021/11/28 12:30:54;;;;;;;0.70;0.38;;;6.60;99.90;;;;;;5032614;28;20117;-73
2021/11/28 12:33:40;;;;;;;0.68;0.50;;;6.60;99.90;;;;;;5033054;28;20096;-73
2021/11/28 12:36:06;;;;;;;0.95;0.40;;;6.60;99.90;;;;;;5032477;28;20033;-74
2021/11/28 12:38:49;;;;;;;0.80;0.50;;;6.60;99.90;;;;;;5032193;28;20053;-73
2021/11/28 12:41:15;;;;;;;0.93;0.50;;;6.60;99.90;;;;;;5032756;28;20052;-74
2021/11/28 12:43:40;;;;;;;1.02;0.40;;;6.60;99.90;;;;;;5032118;28;20026;-73
2021/11/28 12:46:07;;;;;;;0.45;0.40;;;6.60;99.90;;;;;;5033034;28;20025;-73
2021/11/28 12:48:32;;;;;;;0.47;0.40;;;6.60;99.90;;;;;;5032386;28;20029;-73
2021/11/28 12:51:03;;;;;;;0.30;0.30;;;6.60;99.90;;;;;;5031341;28;20025;-74
2021/11/28 12:53:41;;;;;;;0.50;0.50;;;6.60;99.90;;;;;;5032134;28;20032;-73
2021/11/28 12:56:13;;;;;;;0.40;0.40;;;6.70;99.90;;;;;;5032520;28;20033;-73
2021/11/28 12:59:10;;;;;;;0.75;0.50;;;6.70;99.90;;;;;;5030798;28;20373;-74
2021/11/28 13:01:50;;;;;;;0.30;0.30;;;6.70;99.90;;;;;;5032051;28;20048;-74
2021/11/28 13:04:37;;;;;;;1.10;0.30;;;6.60;99.90;;;;;;5032639;28;20029;-74
2021/11/28 13:07:29;;;;;;;0.70;0.40;;;6.50;99.90;;;;;;5032750;28;20030;-74
2021/11/28 13:09:57;;;;;;;0.30;0.30;;;6.50;99.90;;;;;;5032543;28;20032;-74